createdAt,value
2022-08-08T00:00:56.908Z,0
2022-08-08T00:02:32.784Z,0
2022-08-08T00:04:33.704Z,1.263
2022-08-08T00:06:34.754Z,0.28
2022-08-08T00:08:36.163Z,0
2022-08-08T00:10:37.809Z,0.14
2022-08-08T00:12:39.606Z,0
2022-08-08T00:14:48.878Z,0
2022-08-08T00:16:41.684Z,0
2022-08-08T00:18:42.712Z,1.123
2022-08-08T00:20:44.627Z,0
2022-08-08T00:22:46.262Z,0
2022-08-08T00:24:48.217Z,0
2022-08-08T00:26:49.379Z,0
2022-08-08T00:30:56.185Z,0
2022-08-08T00:32:53.372Z,0
2022-08-08T00:34:54.801Z,0
2022-08-08T00:36:56.078Z,0
2022-08-08T00:38:57.862Z,0
2022-08-08T00:41:08.481Z,0
2022-08-08T00:43:06.153Z,0
2022-08-08T00:45:03.091Z,0.28
2022-08-08T00:47:04.438Z,0
2022-08-08T00:49:05.593Z,0
2022-08-08T00:51:07.563Z,0
2022-08-08T00:53:14.066Z,0
2022-08-08T00:55:10.296Z,0
2022-08-08T00:57:12.932Z,0
2022-08-08T00:59:13.464Z,0
2022-08-08T01:03:57.752Z,0
2022-08-08T01:05:29.379Z,0
2022-08-08T01:07:18.397Z,0
2022-08-08T01:09:35.377Z,0
2022-08-08T01:13:23.153Z,0
2022-08-08T01:15:26.236Z,0
2022-08-08T01:19:42.511Z,0
2022-08-08T01:21:35.189Z,0
2022-08-08T01:23:55.138Z,0
2022-08-08T01:25:40.497Z,0
2022-08-08T01:27:32.909Z,0
2022-08-08T01:29:35.320Z,0
2022-08-08T01:32:05.588Z,0
2022-08-08T01:33:42.903Z,0
2022-08-08T01:35:38.325Z,0
2022-08-08T01:37:56.204Z,0
2022-08-08T01:39:41.843Z,0
2022-08-08T01:41:43.705Z,0
2022-08-08T01:45:43.682Z,0
2022-08-08T01:46:27.543Z,0
2022-08-08T01:48:31.179Z,0
2022-08-08T01:50:34.060Z,0
2022-08-08T01:52:44.112Z,0.702
2022-08-08T01:55:15.268Z,0.561
2022-08-08T01:56:37.180Z,0.421
2022-08-08T01:58:38.960Z,0
2022-08-08T02:00:37.255Z,0
2022-08-08T02:02:39.852Z,0
2022-08-08T02:06:43.448Z,0
2022-08-08T02:08:45.648Z,0
2022-08-08T02:10:45.270Z,0
2022-08-08T02:12:45.900Z,0
2022-08-08T02:14:50.274Z,0.842
2022-08-08T02:18:51.009Z,0.14
2022-08-08T02:21:00.379Z,1.544
2022-08-08T02:22:55.029Z,1.404
2022-08-08T02:24:54.935Z,0.14
2022-08-08T02:26:58.118Z,0
2022-08-08T02:28:57.222Z,0
2022-08-08T02:31:02.170Z,0
2022-08-08T02:33:00.323Z,0
2022-08-08T02:35:06.541Z,0.14
2022-08-08T02:37:03.622Z,0
2022-08-08T02:39:41.474Z,0
2022-08-08T02:41:07.844Z,0
2022-08-08T02:44:36.481Z,0
2022-08-08T02:45:09.585Z,0
2022-08-08T02:47:09.692Z,0
2022-08-08T02:49:13.440Z,0
2022-08-08T02:51:12.070Z,0
2022-08-08T02:55:19.673Z,0
2022-08-08T02:57:17.008Z,0
2022-08-08T02:59:26.420Z,0
2022-08-08T03:01:19.446Z,0
2022-08-08T03:03:46.463Z,0
2022-08-08T03:05:22.169Z,0
2022-08-08T03:07:23.798Z,0
2022-08-08T03:09:28.548Z,0
2022-08-08T03:11:31.775Z,0
2022-08-08T03:13:33.699Z,0
2022-08-08T03:15:55.051Z,0
2022-08-08T03:17:39.366Z,0
2022-08-08T03:19:31.801Z,0
2022-08-08T03:21:40.957Z,0
2022-08-08T03:23:40.007Z,0
2022-08-08T03:25:35.759Z,0
2022-08-08T03:27:41.919Z,0
2022-08-08T03:29:51.305Z,0
2022-08-08T03:31:54.702Z,0
2022-08-08T03:33:54.186Z,0
2022-08-08T03:35:42.678Z,0
2022-08-08T03:38:00.479Z,0.842
2022-08-08T03:39:51.859Z,0
2022-08-08T03:42:13.596Z,1.263
2022-08-08T03:43:48.750Z,0
2022-08-08T03:46:03.531Z,0
2022-08-08T03:47:54.076Z,0
2022-08-08T03:49:57.151Z,0
2022-08-08T03:51:54.542Z,0
2022-08-08T03:53:55.592Z,0
2022-08-08T03:56:04.328Z,0
2022-08-08T03:58:09.966Z,0
2022-08-08T04:00:07.608Z,0
2022-08-08T04:02:13.388Z,0
2022-08-08T04:04:03.414Z,0
2022-08-08T04:06:04.815Z,0
2022-08-08T04:08:06.470Z,0
2022-08-08T04:10:07.916Z,0
2022-08-08T04:12:11.706Z,0
2022-08-08T04:14:35.043Z,1.965
2022-08-08T04:16:11.899Z,1.263
2022-08-08T04:18:16.471Z,0.561
2022-08-08T04:20:15.242Z,1.684
2022-08-08T04:22:16.862Z,0.28
2022-08-08T04:24:19.401Z,0
2022-08-08T04:26:19.997Z,0
2022-08-08T04:28:35.692Z,0
2022-08-08T04:30:23.017Z,0
2022-08-08T04:32:30.469Z,0
2022-08-08T04:34:28.181Z,0
2022-08-08T04:36:26.975Z,0
2022-08-08T04:38:28.914Z,0
2022-08-08T04:40:30.231Z,0
2022-08-08T04:42:32.377Z,0
2022-08-08T04:44:33.775Z,0.702
2022-08-08T04:46:34.878Z,0
2022-08-08T04:48:36.319Z,0
2022-08-08T04:50:40.119Z,0
2022-08-08T04:52:39.623Z,0.702
2022-08-08T04:54:42.356Z,1.263
2022-08-08T04:56:42.259Z,0
2022-08-08T04:58:43.952Z,0
2022-08-08T05:00:47.678Z,0
2022-08-08T05:02:47.663Z,0
2022-08-08T05:04:48.983Z,0.14
2022-08-08T05:06:52.122Z,0
2022-08-08T05:08:52.202Z,0
2022-08-08T05:10:53.040Z,0
2022-08-08T05:13:00.511Z,0
2022-08-08T05:14:55.858Z,0
2022-08-08T05:17:00.301Z,0
2022-08-08T05:18:58.682Z,0
2022-08-08T05:20:59.562Z,0
2022-08-08T05:23:00.575Z,0
2022-08-08T05:25:01.534Z,0
2022-08-08T05:27:02.671Z,0
2022-08-08T05:29:04.887Z,0
2022-08-08T05:31:08.755Z,0
2022-08-08T05:33:07.627Z,0
2022-08-08T05:35:09.483Z,0
2022-08-08T05:37:16.210Z,0
2022-08-08T05:39:11.629Z,0
2022-08-08T05:41:12.901Z,0
2022-08-08T05:43:15.658Z,0
2022-08-08T05:45:24.997Z,0
2022-08-08T05:47:20.885Z,0
2022-08-08T05:49:18.125Z,0
2022-08-08T05:51:19.142Z,0
2022-08-08T05:53:23.363Z,0
2022-08-08T05:55:21.480Z,0.28
2022-08-08T05:57:57.900Z,0
2022-08-08T05:59:52.066Z,0.14
2022-08-08T06:01:50.849Z,0
2022-08-08T06:03:29.616Z,0
2022-08-08T06:05:34.495Z,0.561
2022-08-08T06:07:28.717Z,0.421
2022-08-08T06:09:42.287Z,0.14
2022-08-08T06:11:30.355Z,1.123
2022-08-08T06:13:36.018Z,0
2022-08-08T06:15:50.364Z,0.28
2022-08-08T06:17:51.794Z,0.561
2022-08-08T06:19:35.855Z,0
2022-08-08T06:21:48.618Z,1.123
2022-08-08T06:23:52.368Z,0.842
2022-08-08T06:26:35.453Z,1.684
2022-08-08T06:27:44.892Z,0.14
2022-08-08T06:29:49.677Z,0
2022-08-08T06:31:52.778Z,0.982
2022-08-08T06:34:25.228Z,0.421
2022-08-08T06:36:05.245Z,0.14
2022-08-08T06:37:50.196Z,0.28
2022-08-08T06:39:55.833Z,1.263
2022-08-08T06:41:51.260Z,0.14
2022-08-08T06:43:56.863Z,0
2022-08-08T06:45:55.125Z,1.825
2022-08-08T06:47:58.735Z,0.28
2022-08-08T06:49:58.520Z,1.544
2022-08-08T06:51:59.784Z,1.965
2022-08-08T06:54:01.587Z,0
2022-08-08T06:58:04.396Z,0
2022-08-08T07:00:11.039Z,1.263
2022-08-08T07:02:18.361Z,0.842
2022-08-08T07:04:36.095Z,2.667
2022-08-08T07:06:08.831Z,0.702
2022-08-08T07:08:10.569Z,0.421
2022-08-08T07:10:12.486Z,1.404
2022-08-08T07:12:14.118Z,2.106
2022-08-08T07:14:15.123Z,0.421
2022-08-08T07:16:16.188Z,1.123
2022-08-08T07:18:34.732Z,2.667
2022-08-08T07:20:19.183Z,1.404
2022-08-08T07:22:20.777Z,0.28
2022-08-08T07:24:22.839Z,1.825
2022-08-08T07:26:29.164Z,1.544
2022-08-08T07:28:24.267Z,0
2022-08-08T07:30:25.465Z,0.28
2022-08-08T07:32:26.699Z,2.527
2022-08-08T07:34:31.476Z,3.229
2022-08-08T07:36:29.147Z,2.808
2022-08-08T07:38:29.913Z,0.421
2022-08-08T07:40:32.311Z,1.123
2022-08-08T07:42:33.104Z,1.404
2022-08-08T07:44:33.580Z,0
2022-08-08T07:46:34.526Z,1.123
2022-08-08T07:48:35.747Z,1.684
2022-08-08T07:50:37.242Z,0.842
2022-08-08T07:52:43.603Z,1.263
2022-08-08T07:54:40.822Z,2.246
2022-08-08T07:58:42.799Z,2.106
2022-08-08T08:00:43.705Z,0.982
2022-08-08T08:02:44.610Z,3.088
2022-08-08T08:04:46.646Z,4.914
2022-08-08T08:08:50.573Z,0.982
2022-08-08T08:10:49.567Z,7.581
2022-08-08T08:12:50.707Z,1.965
2022-08-08T08:14:52.415Z,3.229
2022-08-08T08:16:53.634Z,0.702
2022-08-08T08:18:55.928Z,5.054
2022-08-08T08:20:56.493Z,5.616
2022-08-08T08:22:57.900Z,2.527
2022-08-08T08:24:59.551Z,4.071
2022-08-08T08:27:03.039Z,7.16
2022-08-08T08:31:02.753Z,3.229
2022-08-08T08:31:46.431Z,3.79
2022-08-08T08:33:47.534Z,3.79
2022-08-08T08:36:18.042Z,1.404
2022-08-08T08:38:13.524Z,3.51
2022-08-08T08:40:00.658Z,4.773
2022-08-08T08:41:53.807Z,3.369
2022-08-08T08:44:04.023Z,5.616
2022-08-08T08:45:57.235Z,0.421
2022-08-08T08:47:58.126Z,0.842
2022-08-08T08:49:58.972Z,4.212
2022-08-08T08:52:00.643Z,2.667
2022-08-08T08:54:01.908Z,2.246
2022-08-08T08:56:03.141Z,0.982
2022-08-08T08:58:04.076Z,1.825
2022-08-08T09:00:11.440Z,3.931
2022-08-08T09:02:06.151Z,4.773
2022-08-08T09:04:07.125Z,3.931
2022-08-08T09:06:19.424Z,3.369
2022-08-08T09:08:13.220Z,5.194
2022-08-08T09:10:13.824Z,5.054
2022-08-08T09:12:12.294Z,8.564
2022-08-08T09:14:13.354Z,5.475
2022-08-08T09:16:15.061Z,4.212
2022-08-08T09:18:16.656Z,4.914
2022-08-08T09:21:55.183Z,3.79
2022-08-08T09:22:19.599Z,2.246
2022-08-08T09:24:20.254Z,3.65
2022-08-08T09:26:21.482Z,3.931
2022-08-08T09:28:30.814Z,1.825
2022-08-08T09:30:23.826Z,6.177
2022-08-08T09:32:31.024Z,2.386
2022-08-08T09:34:32.948Z,3.51
2022-08-08T09:36:28.096Z,1.404
2022-08-08T09:38:29.706Z,7.862
2022-08-08T09:40:41.874Z,0.702
2022-08-08T09:42:31.790Z,4.773
2022-08-08T09:44:34.121Z,3.229
2022-08-08T09:46:33.804Z,7.3
2022-08-08T09:50:36.351Z,3.51
2022-08-08T09:52:56.884Z,4.914
2022-08-08T09:54:39.560Z,3.931
2022-08-08T09:56:40.918Z,3.79
2022-08-08T09:58:44.780Z,7.02
2022-08-08T10:00:48.654Z,3.369
2022-08-08T10:02:44.913Z,10.67
2022-08-08T10:04:47.653Z,2.667
2022-08-08T10:06:52.975Z,6.879
2022-08-08T10:08:56.787Z,8.283
2022-08-08T10:10:51.436Z,5.475
2022-08-08T10:12:53.612Z,6.458
2022-08-08T10:14:53.132Z,4.212
2022-08-08T10:16:54.786Z,4.914
2022-08-08T10:18:56.653Z,1.684
2022-08-08T10:20:58.353Z,1.404
2022-08-08T10:22:58.725Z,4.633
2022-08-08T10:25:00.241Z,5.475
2022-08-08T10:27:01.377Z,2.246
2022-08-08T10:29:02.258Z,1.965
2022-08-08T10:31:03.705Z,1.965
2022-08-08T10:35:10.487Z,6.037
2022-08-08T10:37:07.020Z,5.054
2022-08-08T10:39:08.260Z,6.318
2022-08-08T10:41:09.923Z,5.756
2022-08-08T10:43:11.069Z,5.475
2022-08-08T10:45:15.800Z,4.212
2022-08-08T10:47:14.436Z,6.739
2022-08-08T10:49:26.692Z,9.406
2022-08-08T10:51:16.917Z,4.773
2022-08-08T10:53:18.621Z,3.369
2022-08-08T10:55:39.236Z,4.352
2022-08-08T10:57:27.543Z,5.616
2022-08-08T10:59:22.419Z,3.931
2022-08-08T11:01:23.813Z,2.106
2022-08-08T11:03:36.651Z,2.246
2022-08-08T11:05:26.322Z,8.143
2022-08-08T11:07:40.938Z,3.369
2022-08-08T11:09:32.097Z,5.756
2022-08-08T11:11:32.964Z,7.02
2022-08-08T11:15:31.917Z,3.229
2022-08-08T11:17:59.241Z,3.088
2022-08-08T11:19:34.147Z,6.598
2022-08-08T11:21:35.726Z,7.862
2022-08-08T11:23:36.541Z,8.424
2022-08-08T11:25:52.366Z,3.65
2022-08-08T11:28:01.685Z,4.352
2022-08-08T11:29:41.665Z,2.386
2022-08-08T11:31:43.573Z,2.667
2022-08-08T11:33:52.189Z,4.914
2022-08-08T11:35:44.473Z,5.054
2022-08-08T11:38:34.687Z,5.054
2022-08-08T11:39:56.986Z,5.475
2022-08-08T11:41:48.464Z,2.667
2022-08-08T11:43:49.722Z,2.808
2022-08-08T11:48:03.038Z,1.544
2022-08-08T11:49:53.821Z,3.369
2022-08-08T11:51:54.930Z,1.965
2022-08-08T11:53:59.369Z,6.037
2022-08-08T11:58:00.451Z,3.229
2022-08-08T12:00:02.411Z,2.386
2022-08-08T12:02:21.632Z,4.071
2022-08-08T12:04:03.157Z,4.914
2022-08-08T12:08:05.650Z,5.335
2022-08-08T12:10:08.685Z,6.879
2022-08-08T12:14:11.093Z,9.547
2022-08-08T12:16:11.032Z,4.492
2022-08-08T12:18:11.896Z,1.965
2022-08-08T12:20:14.678Z,3.51
2022-08-08T12:22:20.443Z,0.561
2022-08-08T12:24:14.976Z,2.386
2022-08-08T12:26:16.977Z,1.263
2022-08-08T12:28:17.249Z,1.544
2022-08-08T12:30:21.633Z,4.071
2022-08-08T12:32:20.723Z,5.896
2022-08-08T12:34:21.059Z,1.825
2022-08-08T12:36:22.774Z,3.229
2022-08-08T12:38:30.455Z,0.702
2022-08-08T12:40:25.729Z,4.914
2022-08-08T12:42:32.865Z,2.667
2022-08-08T12:44:30.219Z,6.879
2022-08-08T12:46:28.720Z,1.684
2022-08-08T12:48:36.789Z,4.212
2022-08-08T12:50:31.943Z,4.773
2022-08-08T12:52:32.985Z,2.808
2022-08-08T12:56:35.837Z,3.931
2022-08-08T12:58:37.332Z,1.965
2022-08-08T13:00:39.285Z,1.684
2022-08-08T13:02:41.919Z,2.527
2022-08-08T13:06:42.771Z,4.633
2022-08-08T13:08:53.057Z,6.739
2022-08-08T13:12:47.220Z,5.475
2022-08-08T13:14:52.662Z,3.79
2022-08-08T13:16:49.258Z,3.51
2022-08-08T13:18:56.432Z,6.458
2022-08-08T13:20:51.220Z,4.773
2022-08-08T13:23:08.304Z,2.948
2022-08-08T13:24:53.995Z,5.335
2022-08-08T13:26:55.206Z,5.616
2022-08-08T13:28:56.864Z,6.598
2022-08-08T13:30:58.123Z,5.756
2022-08-08T13:32:58.953Z,6.739
2022-08-08T13:35:00.135Z,1.825
2022-08-08T13:37:01.033Z,3.088
2022-08-08T13:39:02.160Z,2.246
2022-08-08T13:41:04.239Z,2.386
2022-08-08T13:43:05.043Z,1.965
2022-08-08T13:45:05.800Z,1.825
2022-08-08T13:47:07.480Z,2.667
2022-08-08T13:49:12.478Z,1.123
2022-08-08T13:51:25.210Z,0.982
2022-08-08T13:53:22.546Z,3.65
2022-08-08T13:55:11.638Z,4.633
2022-08-08T13:57:13.139Z,5.756
2022-08-08T13:59:13.644Z,2.808
2022-08-08T14:01:15.136Z,3.65
2022-08-08T14:03:47.432Z,1.965
2022-08-08T14:07:17.870Z,0.842
2022-08-08T14:09:25.653Z,2.667
2022-08-08T14:11:20.001Z,0.702
2022-08-08T14:13:31.121Z,0.702
2022-08-08T14:15:22.267Z,2.386
2022-08-08T14:17:57.466Z,6.318
2022-08-08T14:19:29.797Z,7.02
2022-08-08T14:21:25.312Z,2.246
2022-08-08T14:24:04.991Z,6.739
2022-08-08T14:25:27.316Z,6.598
2022-08-08T14:27:29.100Z,2.808
2022-08-08T14:29:30.905Z,4.492
2022-08-08T14:31:37.267Z,10.249
2022-08-08T14:33:34.193Z,1.965
2022-08-08T14:37:42.875Z,5.335
2022-08-08T14:39:47.457Z,3.369
2022-08-08T14:41:45.084Z,0.561
2022-08-08T14:44:02.399Z,2.246
2022-08-08T14:47:41.579Z,2.667
2022-08-08T14:49:51.762Z,0.421
2022-08-08T14:51:47.350Z,4.773
2022-08-08T14:53:54.855Z,0.561
2022-08-08T14:55:46.315Z,7.722
2022-08-08T14:58:02.342Z,1.684
2022-08-08T14:59:50.283Z,8.424
2022-08-08T15:01:51.434Z,6.037
2022-08-08T15:03:53.476Z,2.667
2022-08-08T15:05:52.616Z,3.931
2022-08-08T15:07:53.886Z,1.123
2022-08-08T15:09:53.823Z,3.931
2022-08-08T15:11:55.493Z,5.756
2022-08-08T15:14:02.116Z,0.14
2022-08-08T15:16:02.264Z,1.544
2022-08-08T15:17:08.821Z,2.948
2022-08-08T15:21:10.675Z,2.246
2022-08-08T15:23:11.822Z,3.79
2022-08-08T15:25:17.413Z,2.948
2022-08-08T15:27:20.241Z,6.598
2022-08-08T15:31:26.191Z,2.948
2022-08-08T15:33:21.042Z,2.246
2022-08-08T15:35:19.788Z,6.458
2022-08-08T15:37:21.498Z,2.246
2022-08-08T15:41:24.642Z,4.071
2022-08-08T15:43:35.554Z,3.088
2022-08-08T15:45:29.790Z,4.492
2022-08-08T15:47:27.192Z,4.212
2022-08-08T15:49:29.427Z,5.756
2022-08-08T15:51:32.847Z,2.527
2022-08-08T15:53:33.281Z,4.914
2022-08-08T15:55:31.714Z,3.088
2022-08-08T16:00:04.939Z,5.475
2022-08-08T16:01:40.342Z,3.088
2022-08-08T16:03:36.397Z,3.79
2022-08-08T16:05:45.940Z,0.982
2022-08-08T16:07:39.676Z,0.14
2022-08-08T16:13:06.121Z,5.054
2022-08-08T16:13:07.118Z,2.948
2022-08-08T16:13:43.700Z,5.896
2022-08-08T16:15:57.827Z,1.404
2022-08-08T16:17:58.266Z,0.702
2022-08-08T16:19:57.031Z,0.842
2022-08-08T16:21:49.045Z,4.352
2022-08-08T16:23:49.072Z,3.229
2022-08-08T16:25:53.133Z,1.123
2022-08-08T16:27:55.274Z,3.369
2022-08-08T16:30:08.591Z,2.246
2022-08-08T16:31:54.891Z,4.352
2022-08-08T16:33:58.143Z,6.598
2022-08-08T16:35:56.716Z,2.246
2022-08-08T16:40:01.619Z,2.948
2022-08-08T16:42:01.010Z,3.931
2022-08-08T16:44:01.110Z,1.404
2022-08-08T16:46:38.209Z,2.527
2022-08-08T16:50:04.270Z,3.369
2022-08-08T16:54:58.587Z,3.79
2022-08-08T16:54:58.988Z,2.106
2022-08-08T16:56:14.226Z,1.684
2022-08-08T16:58:13.452Z,10.108
2022-08-08T17:00:09.835Z,5.616
2022-08-08T17:02:23.330Z,2.386
2022-08-08T17:04:11.556Z,1.965
2022-08-08T17:06:17.602Z,5.756
2022-08-08T17:08:14.124Z,5.054
2022-08-08T17:10:16.897Z,1.263
2022-08-08T17:12:18.313Z,3.51
2022-08-08T17:14:19.247Z,6.177
2022-08-08T17:16:22.160Z,4.633
2022-08-08T17:18:20.815Z,3.65
2022-08-08T17:20:21.952Z,0
2022-08-08T17:22:33.228Z,3.369
2022-08-08T17:24:27.600Z,0.421
2022-08-08T17:26:29.127Z,0.561
2022-08-08T17:28:30.795Z,2.667
2022-08-08T17:30:29.294Z,2.106
2022-08-08T17:32:34.186Z,0.842
2022-08-08T17:34:38.135Z,1.263
2022-08-08T17:36:33.029Z,6.037
2022-08-08T17:38:34.640Z,0.842
2022-08-08T17:40:36.097Z,0.28
2022-08-08T17:42:37.549Z,0.14
2022-08-08T17:44:39.689Z,0
2022-08-08T17:46:39.733Z,0.842
2022-08-08T17:48:40.794Z,0.842
2022-08-08T17:50:41.679Z,0
2022-08-08T17:52:47.493Z,0
2022-08-08T17:54:46.146Z,0
2022-08-08T17:56:46.047Z,0
2022-08-08T17:58:47.546Z,0
2022-08-08T18:00:54.520Z,0
2022-08-08T18:02:52.356Z,0
2022-08-08T18:04:52.132Z,0.14
2022-08-08T18:06:53.250Z,0
2022-08-08T18:08:55.317Z,0.982
2022-08-08T18:10:56.489Z,0
2022-08-08T18:12:57.535Z,1.544
2022-08-08T18:14:58.876Z,0
2022-08-08T18:17:00.589Z,0
2022-08-08T18:21:10.472Z,0
2022-08-08T18:23:04.846Z,0
2022-08-08T18:25:06.109Z,0
2022-08-08T18:27:15.263Z,0
2022-08-08T18:31:10.198Z,0
2022-08-08T18:33:20.109Z,0.561
2022-08-08T18:35:15.580Z,1.404
2022-08-08T18:37:17.906Z,0.28
2022-08-08T18:39:16.302Z,0.421
2022-08-08T18:41:16.689Z,1.123
2022-08-08T18:43:17.757Z,0.421
2022-08-08T18:45:45.284Z,0
2022-08-08T18:47:20.805Z,1.965
2022-08-08T18:49:22.635Z,1.263
2022-08-08T18:51:42.412Z,1.404
2022-08-08T18:53:25.122Z,0
2022-08-08T18:55:27.926Z,0
2022-08-08T18:57:28.288Z,0
2022-08-08T18:59:34.726Z,0
2022-08-08T19:03:40.381Z,0
2022-08-08T19:05:34.387Z,0
2022-08-08T19:07:37.334Z,0
2022-08-08T19:09:48.605Z,0
2022-08-08T19:11:38.432Z,0
2022-08-08T19:13:54.064Z,0
2022-08-08T19:15:40.496Z,0
2022-08-08T19:17:47.718Z,0
2022-08-08T19:19:43.999Z,0
2022-08-08T19:21:48.008Z,2.948
2022-08-08T19:23:46.117Z,4.071
2022-08-08T19:26:02.682Z,4.212
2022-08-08T19:27:56.677Z,3.369
2022-08-08T19:29:50.488Z,3.931
2022-08-08T19:31:51.717Z,3.088
2022-08-08T19:34:04.438Z,2.386
2022-08-08T19:36:08.185Z,1.263
2022-08-08T19:37:57.707Z,0
2022-08-08T19:39:57.786Z,2.527
2022-08-08T19:41:58.956Z,1.263
2022-08-08T19:44:02.674Z,1.263
2022-08-08T19:46:01.840Z,0.982
2022-08-08T19:48:03.191Z,0.842
2022-08-08T19:50:04.861Z,2.106
2022-08-08T19:52:05.829Z,0
2022-08-08T19:54:06.906Z,0.28
2022-08-08T19:56:08.181Z,1.825
2022-08-08T19:58:09.442Z,0
2022-08-08T20:00:11.185Z,0
2022-08-08T20:02:11.829Z,0
2022-08-08T20:04:13.489Z,0
2022-08-08T20:06:16.688Z,0
2022-08-08T20:08:27.727Z,0
2022-08-08T20:12:17.771Z,0
2022-08-08T20:14:33.317Z,0
2022-08-08T20:16:20.103Z,0
2022-08-08T20:18:21.807Z,0
2022-08-08T20:20:22.853Z,0
2022-08-08T20:22:26.747Z,0
2022-08-08T20:24:24.796Z,0
2022-08-08T20:26:27.768Z,0
2022-08-08T20:28:32.370Z,0
2022-08-08T20:30:54.031Z,0
2022-08-08T20:32:29.361Z,0
2022-08-08T20:34:31.988Z,0
2022-08-08T20:36:32.022Z,0
2022-08-08T20:38:33.531Z,0.702
2022-08-08T20:40:39.142Z,0
2022-08-08T20:42:36.851Z,0
2022-08-08T20:44:37.871Z,0
2022-08-08T20:46:39.147Z,0
2022-08-08T20:48:40.890Z,0.14
2022-08-08T20:50:41.485Z,0
2022-08-08T20:54:44.194Z,0
2022-08-08T20:57:04.217Z,0
2022-08-08T20:58:46.888Z,0.561
2022-08-08T21:00:48.334Z,3.229
2022-08-08T21:02:52.634Z,0.14
2022-08-08T21:04:50.888Z,0.982
2022-08-08T21:06:53.965Z,0.982
2022-08-08T21:08:54.048Z,0.28
2022-08-08T21:10:55.807Z,0
2022-08-08T21:12:57.119Z,0
2022-08-08T21:14:59.031Z,0
2022-08-08T21:17:00.335Z,2.948
2022-08-08T21:19:01.646Z,2.527
2022-08-08T21:21:03.112Z,0.702
2022-08-08T21:23:04.237Z,1.404
2022-08-08T21:25:05.325Z,0.421
2022-08-08T21:27:06.529Z,0
2022-08-08T21:29:07.760Z,0
2022-08-08T21:31:22.440Z,0
2022-08-08T21:33:11.605Z,0
2022-08-08T21:36:13.343Z,0
2022-08-08T21:37:16.297Z,0
2022-08-08T21:39:15.426Z,0.28
2022-08-08T21:41:18.584Z,0.14
2022-08-08T21:43:18.618Z,0
2022-08-08T21:45:21.082Z,0
2022-08-08T21:48:03.492Z,0.14
2022-08-08T21:49:22.206Z,0
2022-08-08T21:51:45.985Z,0
2022-08-08T21:54:20.197Z,0
2022-08-08T21:56:18.802Z,0
2022-08-08T21:57:28.855Z,0
2022-08-08T21:59:43.973Z,0
2022-08-08T22:01:39.524Z,0
2022-08-08T22:02:15.895Z,0
2022-08-08T22:04:16.105Z,0
2022-08-08T22:06:28.786Z,0
2022-08-08T22:08:24.093Z,0
2022-08-08T22:10:32.439Z,0
2022-08-08T22:12:22.074Z,0
2022-08-08T22:14:23.792Z,0
2022-08-08T22:16:24.724Z,0
2022-08-08T22:18:25.715Z,0
2022-08-08T22:20:28.220Z,0
2022-08-08T22:22:29.794Z,0
2022-08-08T22:24:29.789Z,0
2022-08-08T22:26:31.232Z,0
2022-08-08T22:29:05.379Z,0
2022-08-08T22:30:33.930Z,0
2022-08-08T22:32:35.225Z,0
2022-08-08T22:34:39.115Z,0
2022-08-08T22:36:38.083Z,0
2022-08-08T22:38:39.254Z,0
2022-08-08T22:40:40.806Z,0
2022-08-08T22:42:42.558Z,0
2022-08-08T22:44:43.555Z,0
2022-08-08T22:46:45.066Z,0
2022-08-08T22:48:46.336Z,0
2022-08-08T22:50:48.121Z,0
2022-08-08T22:53:00.065Z,0
2022-08-08T22:54:53.840Z,0
2022-08-08T22:56:53.095Z,0
2022-08-08T22:58:54.588Z,0
2022-08-08T23:00:55.697Z,0
2022-08-08T23:02:57.053Z,0
2022-08-08T23:04:58.522Z,0
2022-08-08T23:07:02.542Z,0
2022-08-08T23:09:01.089Z,0
2022-08-08T23:13:05.116Z,0
2022-08-08T23:15:11.003Z,0
2022-08-08T23:19:09.013Z,0
2022-08-08T23:21:09.977Z,0
2022-08-08T23:23:11.213Z,0
2022-08-08T23:25:12.716Z,0
2022-08-08T23:29:15.892Z,0
2022-08-08T23:31:16.971Z,0
2022-08-08T23:33:19.552Z,0
2022-08-08T23:35:20.219Z,0
2022-08-08T23:37:24.437Z,0
2022-08-08T23:39:22.801Z,0
2022-08-08T23:41:24.970Z,0
2022-08-08T23:43:31.731Z,0
2022-08-08T23:48:57.771Z,0
2022-08-08T23:48:59.098Z,0
2022-08-08T23:49:29.707Z,0
2022-08-08T23:51:42.757Z,0
2022-08-08T23:53:56.212Z,0.561
2022-08-08T23:55:38.431Z,0
2022-08-08T23:57:39.505Z,0.28
2022-08-08T23:59:36.749Z,0.14
